createdAt,value
2019-05-25T00:01:47.473Z,20.63
2019-05-25T00:04:18.471Z,21.13
2019-05-25T00:06:49.476Z,21.17
2019-05-25T00:09:20.392Z,21.50
2019-05-25T00:11:51.414Z,25.37
2019-05-25T00:14:22.520Z,22.63
2019-05-25T00:16:53.516Z,23.63
2019-05-25T00:19:24.524Z,24.00
2019-05-25T00:21:55.516Z,23.30
2019-05-25T00:24:26.470Z,24.07
2019-05-25T00:26:57.460Z,23.23
2019-05-25T00:29:28.394Z,22.27
2019-05-25T00:31:59.337Z,23.33
2019-05-25T00:34:30.469Z,22.70
2019-05-25T00:37:01.466Z,24.67
2019-05-25T00:39:32.389Z,28.40
2019-05-25T00:42:03.463Z,26.20
2019-05-25T00:44:34.383Z,25.83
2019-05-25T00:47:05.516Z,29.10
2019-05-25T00:49:36.485Z,27.43
2019-05-25T00:52:07.599Z,26.20
2019-05-25T00:54:38.557Z,30.40
2019-05-25T00:57:09.581Z,31.70
2019-05-25T00:59:40.663Z,37.35
2019-05-25T01:02:11.682Z,33.27
2019-05-25T01:04:42.722Z,28.97
2019-05-25T01:07:13.707Z,27.07
2019-05-25T01:09:44.673Z,25.40
2019-05-25T01:12:15.647Z,26.20
2019-05-25T01:14:46.662Z,27.33
2019-05-25T01:17:17.656Z,26.12
2019-05-25T01:19:48.784Z,27.07
2019-05-25T01:22:19.795Z,27.97
2019-05-25T01:24:50.881Z,27.67
2019-05-25T01:27:21.981Z,26.70
2019-05-25T01:29:52.903Z,26.47
2019-05-25T01:32:23.923Z,26.27
2019-05-25T01:34:54.849Z,30.23
2019-05-25T01:37:25.934Z,27.55
2019-05-25T01:39:57.012Z,28.40
2019-05-25T01:42:28.070Z,27.00
2019-05-25T01:44:59.013Z,26.77
2019-05-25T01:47:29.990Z,26.93
2019-05-25T01:50:00.974Z,26.83
2019-05-25T01:52:31.929Z,27.20
2019-05-25T01:55:02.812Z,27.43
2019-05-25T01:57:33.804Z,26.53
2019-05-25T02:00:06.663Z,26.77
2019-05-25T02:02:37.790Z,26.45
2019-05-25T02:05:09.084Z,27.13
2019-05-25T02:07:40.023Z,28.60
2019-05-25T02:10:11.029Z,27.90
2019-05-25T02:12:41.994Z,27.03
2019-05-25T02:15:13.236Z,27.83
2019-05-25T02:17:44.227Z,28.00
2019-05-25T02:20:15.295Z,27.70
2019-05-25T02:22:46.342Z,28.33
2019-05-25T02:25:18.777Z,27.70
2019-05-25T02:27:50.206Z,28.97
2019-05-25T02:30:24.170Z,27.55
2019-05-25T02:32:55.216Z,29.52
2019-05-25T02:35:29.607Z,30.30
2019-05-25T02:38:00.623Z,33.28
2019-05-25T02:40:31.663Z,30.05
2019-05-25T02:43:02.745Z,29.45
2019-05-25T02:45:33.807Z,30.60
2019-05-25T02:48:04.961Z,31.12
2019-05-25T02:50:36.062Z,29.80
2019-05-25T02:53:07.214Z,30.43
2019-05-25T02:55:38.245Z,31.23
2019-05-25T02:58:09.143Z,31.42
2019-05-25T03:00:40.139Z,29.25
2019-05-25T03:03:11.181Z,30.08
2019-05-25T03:05:42.319Z,28.42
2019-05-25T03:08:13.426Z,29.55
2019-05-25T03:10:44.578Z,29.10
2019-05-25T03:13:16.445Z,28.83
2019-05-25T03:15:47.448Z,29.82
2019-05-25T03:18:18.382Z,28.20
2019-05-25T03:20:49.301Z,27.73
2019-05-25T03:23:20.297Z,28.05
2019-05-25T03:25:51.291Z,26.45
2019-05-25T03:28:22.261Z,24.60
2019-05-25T03:30:53.290Z,24.07
2019-05-25T03:33:24.252Z,23.00
2019-05-25T03:35:55.412Z,27.55
2019-05-25T03:38:26.341Z,24.63
2019-05-25T03:40:57.242Z,23.35
2019-05-25T03:43:28.309Z,23.67
2019-05-25T03:45:59.477Z,22.60
2019-05-25T03:48:30.443Z,23.30
2019-05-25T03:51:01.387Z,22.17
2019-05-25T03:53:32.447Z,21.75
2019-05-25T03:56:06.268Z,20.25
2019-05-25T03:58:36.153Z,18.45
2019-05-25T04:01:07.127Z,17.95
2019-05-25T04:03:38.233Z,17.65
2019-05-25T04:06:09.242Z,15.80
2019-05-25T04:08:40.188Z,15.53
2019-05-25T04:11:11.269Z,14.80
2019-05-25T04:13:42.202Z,13.62
2019-05-25T04:16:13.194Z,17.67
2019-05-25T04:18:44.135Z,19.73
2019-05-25T04:21:15.150Z,31.87
2019-05-25T04:23:46.215Z,13.05
2019-05-25T04:26:22.554Z,14.50
2019-05-25T04:28:50.054Z,13.60
2019-05-25T04:31:21.052Z,15.20
2019-05-25T04:33:52.144Z,16.35
2019-05-25T04:36:23.114Z,18.37
2019-05-25T04:38:54.474Z,19.00
2019-05-25T04:41:25.460Z,20.15
2019-05-25T04:43:56.543Z,21.07
2019-05-25T04:46:27.638Z,19.70
2019-05-25T04:48:58.547Z,19.75
2019-05-25T04:51:29.503Z,20.20
2019-05-25T04:54:00.590Z,21.07
2019-05-25T04:56:39.650Z,19.85
2019-05-25T04:59:04.279Z,18.57
2019-05-25T05:01:35.415Z,18.45
2019-05-25T05:04:10.304Z,16.60
2019-05-25T05:06:41.883Z,17.85
2019-05-25T05:09:13.013Z,16.07
2019-05-25T05:11:44.183Z,16.48
2019-05-25T05:14:15.211Z,15.88
2019-05-25T05:16:46.251Z,14.95
2019-05-25T05:19:17.207Z,14.98
2019-05-25T05:21:48.322Z,13.93
2019-05-25T05:24:19.302Z,18.32
2019-05-25T05:26:55.613Z,15.80
2019-05-25T05:29:23.066Z,15.65
2019-05-25T05:31:55.776Z,14.05
2019-05-25T05:34:26.778Z,13.20
2019-05-25T05:36:58.431Z,14.07
2019-05-25T05:39:31.829Z,13.93
2019-05-25T05:42:03.571Z,15.48
2019-05-25T05:44:35.318Z,12.85
2019-05-25T05:47:10.273Z,11.88
2019-05-25T05:49:41.192Z,15.98
2019-05-25T05:52:13.958Z,12.53
2019-05-25T05:54:46.594Z,13.15
2019-05-25T05:57:19.043Z,14.45
2019-05-25T05:59:50.211Z,13.55
2019-05-25T06:02:21.901Z,16.55
2019-05-25T06:04:54.931Z,14.33
2019-05-25T06:07:28.705Z,12.73
2019-05-25T06:09:59.755Z,13.83
2019-05-25T06:12:30.836Z,12.73
2019-05-25T06:15:01.945Z,12.75
2019-05-25T06:17:33.002Z,13.22
2019-05-25T06:20:09.684Z,14.05
2019-05-25T06:22:40.731Z,14.70
2019-05-25T06:25:11.838Z,13.70
2019-05-25T06:27:43.081Z,14.03
2019-05-25T06:30:14.239Z,13.55
2019-05-25T06:32:45.387Z,12.88
2019-05-25T06:35:16.462Z,13.40
2019-05-25T06:37:47.441Z,13.50
2019-05-25T06:40:20.753Z,13.80
2019-05-25T06:42:51.696Z,14.10
2019-05-25T06:45:22.789Z,14.80
2019-05-25T06:47:53.798Z,15.10
2019-05-25T06:50:25.147Z,14.47
2019-05-25T06:52:57.952Z,14.23
2019-05-25T06:55:28.943Z,14.60
2019-05-25T06:57:59.996Z,13.65
2019-05-25T07:00:30.978Z,13.00
2019-05-25T07:03:04.566Z,15.25
2019-05-25T07:05:35.635Z,13.32
2019-05-25T07:08:06.714Z,12.78
2019-05-25T07:10:38.615Z,13.13
2019-05-25T07:13:09.811Z,12.95
2019-05-25T07:15:40.925Z,13.88
2019-05-25T07:18:11.936Z,13.88
2019-05-25T07:20:43.022Z,16.77
2019-05-25T07:23:14.155Z,15.50
2019-05-25T07:25:45.296Z,16.82
2019-05-25T07:28:16.283Z,16.62
2019-05-25T07:30:47.263Z,16.50
2019-05-25T07:33:18.297Z,15.88
2019-05-25T07:35:49.306Z,15.20
2019-05-25T07:38:20.337Z,16.00
2019-05-25T07:40:51.397Z,16.05
2019-05-25T07:43:22.370Z,16.25
2019-05-25T07:45:53.351Z,15.68
2019-05-25T07:48:24.406Z,17.98
2019-05-25T07:50:57.599Z,16.40
2019-05-25T07:53:28.633Z,16.70
2019-05-25T07:55:59.622Z,15.40
2019-05-25T07:58:30.625Z,15.40
2019-05-25T08:01:01.659Z,13.55
2019-05-25T08:03:32.739Z,14.83
2019-05-25T08:06:06.789Z,13.70
2019-05-25T08:08:37.755Z,12.40
2019-05-25T08:11:08.777Z,12.07
2019-05-25T08:13:39.904Z,13.90
2019-05-25T08:16:11.016Z,14.83
2019-05-25T08:18:42.129Z,14.98
2019-05-25T08:21:13.120Z,14.00
2019-05-25T08:23:44.141Z,13.55
2019-05-25T08:26:15.555Z,13.13
2019-05-25T08:28:46.494Z,15.28
2019-05-25T08:31:17.512Z,14.05
2019-05-25T08:33:48.482Z,11.80
2019-05-25T08:36:19.623Z,11.50
2019-05-25T08:38:50.554Z,11.10
2019-05-25T08:41:21.563Z,10.35
2019-05-25T08:43:52.745Z,10.32
2019-05-25T08:46:23.761Z,10.53
2019-05-25T08:48:54.744Z,10.45
2019-05-25T08:51:25.768Z,55.03
2019-05-25T08:53:57.057Z,20.25
2019-05-25T08:56:28.018Z,12.07
2019-05-25T08:58:58.950Z,10.90
2019-05-25T09:01:29.914Z,9.90
2019-05-25T09:04:00.910Z,8.13
2019-05-25T09:06:31.886Z,8.18
2019-05-25T09:09:03.494Z,6.67
2019-05-25T09:11:34.499Z,7.12
2019-05-25T09:14:05.512Z,6.90
2019-05-25T09:16:36.492Z,7.90
2019-05-25T09:19:07.616Z,7.90
2019-05-25T09:21:38.600Z,6.70
2019-05-25T09:24:11.150Z,6.58
2019-05-25T09:26:42.144Z,6.78
2019-05-25T09:29:13.187Z,8.75
2019-05-25T09:31:44.146Z,7.45
2019-05-25T09:34:15.038Z,7.37
2019-05-25T09:36:46.022Z,6.40
2019-05-25T09:39:17.048Z,5.83
2019-05-25T09:41:47.971Z,6.42
2019-05-25T09:44:22.078Z,5.65
2019-05-25T09:46:53.063Z,6.95
2019-05-25T09:49:24.163Z,5.70
2019-05-25T09:51:55.171Z,5.40
2019-05-25T09:54:26.175Z,5.37
2019-05-25T09:56:57.319Z,5.85
2019-05-25T09:59:28.511Z,5.42
2019-05-25T10:01:59.447Z,4.72
2019-05-25T10:04:30.659Z,5.08
2019-05-25T10:07:01.628Z,5.10
2019-05-25T10:09:32.718Z,5.72
2019-05-25T10:12:04.236Z,7.42
2019-05-25T10:14:35.356Z,5.62
2019-05-25T10:17:06.374Z,5.90
2019-05-25T10:19:37.369Z,6.40
2019-05-25T10:22:08.446Z,6.85
2019-05-25T10:24:39.459Z,6.53
2019-05-25T10:27:10.451Z,5.30
2019-05-25T10:29:41.496Z,4.45
2019-05-25T10:32:12.859Z,4.60
2019-05-25T10:34:44.065Z,4.25
2019-05-25T10:37:15.235Z,3.70
2019-05-25T10:39:46.428Z,3.90
2019-05-25T10:42:17.426Z,4.22
2019-05-25T10:44:48.474Z,4.30
2019-05-25T10:47:19.463Z,5.97
2019-05-25T10:49:50.450Z,4.05
2019-05-25T10:52:21.409Z,4.33
2019-05-25T10:54:52.447Z,4.62
2019-05-25T10:57:23.446Z,5.00
2019-05-25T10:59:54.550Z,4.97
2019-05-25T11:02:25.539Z,4.53
2019-05-25T11:04:56.639Z,4.83
2019-05-25T11:07:27.746Z,4.80
2019-05-25T11:09:58.698Z,3.85
2019-05-25T11:12:31.291Z,3.17
2019-05-25T11:15:03.805Z,3.60
2019-05-25T11:17:35.021Z,3.90
2019-05-25T11:20:08.113Z,4.80
2019-05-25T11:22:39.086Z,4.92
2019-05-25T11:25:10.442Z,3.98
2019-05-25T11:27:41.346Z,3.72
2019-05-25T11:30:13.877Z,4.72
2019-05-25T11:32:44.978Z,4.55
2019-05-25T11:35:17.628Z,4.78
2019-05-25T11:37:48.678Z,4.10
2019-05-25T11:40:22.259Z,4.92
2019-05-25T11:42:53.291Z,4.85
2019-05-25T11:45:24.571Z,3.42
2019-05-25T11:47:55.583Z,3.30
2019-05-25T11:50:26.607Z,7.40
2019-05-25T11:52:57.605Z,9.20
2019-05-25T11:55:28.695Z,9.18
2019-05-25T11:58:00.106Z,9.45
2019-05-25T12:00:32.138Z,9.63
2019-05-25T12:03:03.208Z,8.83
2019-05-25T12:05:34.182Z,7.25
2019-05-25T12:08:05.171Z,7.72
2019-05-25T12:10:36.433Z,6.35
2019-05-25T12:13:07.526Z,6.37
2019-05-25T12:15:38.416Z,6.08
2019-05-25T12:18:09.500Z,6.53
2019-05-25T12:20:40.549Z,7.08
2019-05-25T12:23:11.734Z,8.23
2019-05-25T12:25:42.886Z,8.23
2019-05-25T12:28:14.232Z,9.58
2019-05-25T12:30:45.169Z,10.70
2019-05-25T12:33:16.219Z,11.10
2019-05-25T12:35:47.128Z,11.88
2019-05-25T12:38:18.146Z,12.78
2019-05-25T12:40:54.196Z,11.83
2019-05-25T12:43:25.686Z,11.68
2019-05-25T12:45:56.751Z,13.35
2019-05-25T12:48:27.815Z,12.98
2019-05-25T12:50:58.787Z,12.88
2019-05-25T12:53:29.786Z,13.10
2019-05-25T12:56:00.848Z,12.85
2019-05-25T12:58:31.872Z,11.95
2019-05-25T13:01:03.202Z,13.50
2019-05-25T13:03:34.230Z,11.75
2019-05-25T13:06:05.187Z,11.73
2019-05-25T13:08:36.177Z,11.95
2019-05-25T13:11:09.647Z,10.58
2019-05-25T13:13:40.207Z,11.38
2019-05-25T13:16:11.237Z,9.95
2019-05-25T13:18:42.395Z,8.65
2019-05-25T13:21:13.542Z,7.87
2019-05-25T13:23:44.578Z,8.10
2019-05-25T13:26:15.618Z,7.80
2019-05-25T13:28:46.534Z,7.22
2019-05-25T13:31:19.127Z,6.87
2019-05-25T13:33:50.221Z,7.20
2019-05-25T13:36:32.645Z,6.08
2019-05-25T13:39:07.587Z,6.75
2019-05-25T13:41:38.552Z,6.75
2019-05-25T13:44:12.842Z,7.20
2019-05-25T13:46:47.341Z,8.00
2019-05-25T13:49:19.026Z,8.45
2019-05-25T13:52:01.156Z,7.05
2019-05-25T13:54:33.160Z,8.03
2019-05-25T13:57:04.308Z,7.80
2019-05-25T13:59:40.103Z,6.40
2019-05-25T14:02:14.135Z,7.60
2019-05-25T14:04:46.171Z,8.05
2019-05-25T14:07:17.431Z,6.80
2019-05-25T14:09:48.587Z,7.72
2019-05-25T14:12:19.766Z,6.40
2019-05-25T14:14:50.903Z,6.70
2019-05-25T14:17:21.956Z,7.37
2019-05-25T14:19:52.972Z,6.95
2019-05-25T14:22:27.240Z,6.35
2019-05-25T14:24:58.402Z,5.97
2019-05-25T14:27:29.585Z,6.47
2019-05-25T14:30:00.581Z,7.25
2019-05-25T14:32:31.629Z,5.90
2019-05-25T14:35:02.693Z,5.87
2019-05-25T14:37:35.340Z,5.85
2019-05-25T14:40:11.086Z,5.85
2019-05-25T14:42:40.594Z,5.55
2019-05-25T14:45:13.531Z,5.90
2019-05-25T14:47:44.588Z,5.12
2019-05-25T14:50:15.572Z,5.85
2019-05-25T14:52:46.730Z,6.10
2019-05-25T14:55:20.965Z,5.47
2019-05-25T14:57:52.063Z,5.58
2019-05-25T15:00:23.140Z,5.70
2019-05-25T15:02:58.665Z,5.65
2019-05-25T15:05:31.262Z,6.40
2019-05-25T15:08:03.787Z,6.28
2019-05-25T15:10:34.839Z,5.75
2019-05-25T15:13:06.360Z,5.97
2019-05-25T15:15:37.639Z,6.42
2019-05-25T15:18:08.663Z,5.37
2019-05-25T15:20:39.727Z,5.30
2019-05-25T15:23:14.070Z,5.80
2019-05-25T15:25:46.011Z,5.47
2019-05-25T15:28:17.136Z,5.35
2019-05-25T15:30:48.093Z,5.75
2019-05-25T15:33:19.503Z,5.42
2019-05-25T15:35:50.787Z,5.40
2019-05-25T15:38:21.880Z,5.33
2019-05-25T15:40:52.907Z,4.95
2019-05-25T15:43:23.796Z,5.50
2019-05-25T15:45:54.867Z,5.37
2019-05-25T15:48:26.486Z,5.40
2019-05-25T15:50:57.724Z,5.03
2019-05-25T15:53:28.769Z,5.42
2019-05-25T15:55:59.838Z,5.95
2019-05-25T15:58:30.894Z,6.33
2019-05-25T16:01:02.046Z,5.50
2019-05-25T16:03:33.148Z,5.80
2019-05-25T16:06:04.156Z,5.72
2019-05-25T16:08:35.399Z,5.58
2019-05-25T16:11:06.631Z,5.92
2019-05-25T16:13:37.723Z,6.20
2019-05-25T16:16:08.866Z,6.33
2019-05-25T16:18:39.819Z,6.85
2019-05-25T16:21:11.157Z,6.53
2019-05-25T16:23:42.224Z,6.83
2019-05-25T16:26:13.289Z,6.90
2019-05-25T16:28:44.269Z,6.65
2019-05-25T16:31:15.410Z,7.15
2019-05-25T16:33:46.421Z,10.15
2019-05-25T16:36:17.461Z,9.43
2019-05-25T16:38:48.590Z,8.70
2019-05-25T16:41:19.737Z,7.50
2019-05-25T16:43:50.721Z,7.85
2019-05-25T16:46:21.771Z,8.15
2019-05-25T16:48:52.768Z,7.40
2019-05-25T16:51:23.852Z,8.35
2019-05-25T16:53:54.847Z,8.08
2019-05-25T16:56:25.842Z,8.73
2019-05-25T16:58:56.834Z,8.25
2019-05-25T17:01:46.515Z,8.48
2019-05-25T17:04:01.201Z,8.10
2019-05-25T17:06:32.223Z,9.10
2019-05-25T17:09:03.850Z,9.98
2019-05-25T17:11:34.805Z,9.53
2019-05-25T17:14:05.755Z,9.55
2019-05-25T17:16:36.844Z,10.08
2019-05-25T17:19:07.889Z,11.38
2019-05-25T17:21:38.985Z,11.93
2019-05-25T17:24:09.963Z,11.28
2019-05-25T17:26:41.019Z,11.73
2019-05-25T17:29:12.025Z,11.10
2019-05-25T17:31:43.040Z,12.75
2019-05-25T17:34:14.028Z,12.43
2019-05-25T17:36:45.040Z,11.55
2019-05-25T17:39:16.194Z,11.83
2019-05-25T17:41:47.092Z,11.83
2019-05-25T17:44:19.011Z,12.98
2019-05-25T17:46:50.045Z,28.57
2019-05-25T17:49:21.073Z,23.27
2019-05-25T17:51:52.532Z,14.68
2019-05-25T17:54:23.686Z,17.95
2019-05-25T17:56:54.927Z,30.17
2019-05-25T17:59:25.921Z,14.53
2019-05-25T18:01:57.736Z,15.18
2019-05-25T18:04:28.940Z,16.20
2019-05-25T18:07:00.019Z,13.78
2019-05-25T18:09:31.113Z,13.72
2019-05-25T18:12:02.421Z,15.75
2019-05-25T18:14:34.845Z,18.77
2019-05-25T18:17:06.231Z,17.10
2019-05-25T18:19:37.652Z,17.50
2019-05-25T18:22:09.026Z,19.52
2019-05-25T18:24:40.367Z,20.68
2019-05-25T18:27:11.589Z,19.20
2019-05-25T18:29:42.641Z,19.37
2019-05-25T18:32:13.839Z,27.87
2019-05-25T18:34:44.819Z,20.27
2019-05-25T18:37:16.018Z,18.52
2019-05-25T18:39:48.231Z,20.90
2019-05-25T18:42:20.190Z,19.32
2019-05-25T18:44:51.410Z,20.17
2019-05-25T18:47:22.628Z,17.07
2019-05-25T18:49:53.707Z,19.90
2019-05-25T18:52:24.865Z,21.33
2019-05-25T18:54:55.937Z,22.10
2019-05-25T18:57:27.293Z,20.60
2019-05-25T18:59:59.758Z,20.13
2019-05-25T19:02:31.914Z,24.70
2019-05-25T19:05:03.237Z,25.62
2019-05-25T19:07:37.805Z,38.70
2019-05-25T19:10:09.878Z,20.83
2019-05-25T19:12:41.415Z,25.75
2019-05-25T19:15:12.870Z,29.57
2019-05-25T19:17:44.106Z,22.77
2019-05-25T19:20:21.412Z,18.23
2019-05-25T19:23:10.906Z,21.45
2019-05-25T19:25:44.599Z,26.77
2019-05-25T19:28:15.698Z,19.07
2019-05-25T19:30:46.788Z,21.20
2019-05-25T19:33:17.777Z,18.60
2019-05-25T19:35:54.153Z,18.25
2019-05-25T19:38:24.264Z,21.47
2019-05-25T19:40:55.389Z,21.95
2019-05-25T19:43:28.058Z,24.00
2019-05-25T19:45:59.207Z,18.35
2019-05-25T19:48:30.475Z,16.25
2019-05-25T19:51:01.797Z,17.02
2019-05-25T19:53:32.872Z,19.40
2019-05-25T19:56:04.073Z,17.40
2019-05-25T19:58:38.126Z,24.57
2019-05-25T20:01:09.386Z,25.20
2019-05-25T20:03:40.433Z,18.55
2019-05-25T20:06:11.703Z,18.20
2019-05-25T20:08:42.998Z,17.12
2019-05-25T20:11:14.067Z,18.05
2019-05-25T20:13:45.151Z,19.30
2019-05-25T20:16:16.194Z,19.73
2019-05-25T20:18:47.341Z,20.02
2019-05-25T20:21:18.510Z,20.97
2019-05-25T20:23:49.589Z,24.87
2019-05-25T20:26:20.696Z,20.75
2019-05-25T20:28:51.823Z,21.15
2019-05-25T20:31:24.370Z,22.07
2019-05-25T20:33:55.574Z,23.80
2019-05-25T20:36:26.744Z,23.02
2019-05-25T20:38:57.851Z,23.12
2019-05-25T20:41:28.914Z,33.48
2019-05-25T20:43:59.963Z,23.00
2019-05-25T20:46:31.101Z,25.20
2019-05-25T20:49:02.186Z,25.60
2019-05-25T20:51:33.235Z,22.10
2019-05-25T20:54:05.198Z,21.30
2019-05-25T20:56:36.310Z,23.62
2019-05-25T20:59:07.561Z,22.02
2019-05-25T21:01:38.593Z,21.87
2019-05-25T21:04:09.587Z,23.32
2019-05-25T21:06:40.651Z,25.60
2019-05-25T21:09:11.698Z,24.32
2019-05-25T21:11:42.674Z,22.95
2019-05-25T21:14:13.634Z,21.97
2019-05-25T21:16:44.620Z,21.37
2019-05-25T21:19:15.634Z,22.05
2019-05-25T21:21:46.710Z,25.10
2019-05-25T21:24:17.786Z,22.35
2019-05-25T21:26:48.958Z,23.87
2019-05-25T21:29:20.011Z,23.30
2019-05-25T21:31:51.109Z,23.27
2019-05-25T21:34:22.214Z,24.30
2019-05-25T21:36:54.027Z,24.15
2019-05-25T21:39:25.192Z,23.50
2019-05-25T21:41:56.338Z,22.82
2019-05-25T21:44:27.478Z,22.30
2019-05-25T21:46:58.440Z,23.07
2019-05-25T21:49:29.564Z,22.37
2019-05-25T21:52:00.612Z,23.50
2019-05-25T21:54:31.645Z,22.77
2019-05-25T21:57:02.680Z,22.95
2019-05-25T21:59:33.745Z,21.80
2019-05-25T22:02:04.844Z,22.13
2019-05-25T22:04:35.893Z,21.87
2019-05-25T22:07:06.907Z,23.10
2019-05-25T22:09:37.920Z,22.42
2019-05-25T22:12:09.117Z,22.83
2019-05-25T22:14:40.178Z,23.43
2019-05-25T22:17:11.535Z,21.62
2019-05-25T22:19:42.525Z,26.57
2019-05-25T22:22:14.259Z,27.20
2019-05-25T22:24:45.289Z,21.80
2019-05-25T22:27:16.493Z,23.90
2019-05-25T22:29:47.712Z,25.00
2019-05-25T22:32:18.878Z,23.80
2019-05-25T22:34:49.917Z,23.55
2019-05-25T22:37:20.975Z,25.37
2019-05-25T22:39:52.053Z,27.07
2019-05-25T22:42:23.034Z,24.82
2019-05-25T22:44:54.067Z,26.82
2019-05-25T22:47:26.260Z,34.30
2019-05-25T22:49:57.387Z,30.23
2019-05-25T22:52:28.552Z,25.48
2019-05-25T22:54:59.780Z,24.95
2019-05-25T22:57:30.890Z,24.32
2019-05-25T23:00:02.117Z,25.88
2019-05-25T23:02:33.386Z,32.93
2019-05-25T23:05:08.109Z,24.77
2019-05-25T23:07:39.205Z,25.82
2019-05-25T23:10:11.320Z,25.23
2019-05-25T23:12:42.358Z,24.12
2019-05-25T23:15:14.320Z,23.98
2019-05-25T23:17:45.451Z,26.43
2019-05-25T23:20:17.186Z,28.85
2019-05-25T23:22:49.377Z,26.35
2019-05-25T23:25:20.484Z,26.57
2019-05-25T23:27:51.495Z,26.67
2019-05-25T23:30:22.644Z,26.55
2019-05-25T23:32:53.839Z,28.42
2019-05-25T23:35:24.929Z,26.37
2019-05-25T23:37:56.011Z,25.93
2019-05-25T23:40:27.049Z,25.95
2019-05-25T23:42:58.113Z,31.47
2019-05-25T23:45:30.148Z,27.75
2019-05-25T23:48:01.078Z,26.70
2019-05-25T23:50:32.134Z,26.13
2019-05-25T23:53:03.233Z,26.23
2019-05-25T23:55:34.388Z,26.47
2019-05-25T23:58:05.606Z,25.13
